METAR Data
IDs: Format: Raw Decoded Include TAF

Data at: 1201 UTC 16 Jul 2019

KGUP 161153Z AUTO 00000KT 10SM CLR 17/08 A3020 RMK AO2 SLP034 T01670078 10222 20150 53003
KGUP 161053Z AUTO 00000KT 10SM CLR 17/08 A3020 RMK AO2 SLP023 T01720083
KGUP 160953Z AUTO 00000KT 10SM CLR 16/08 A3019 RMK AO2 SLP033 T01560083
KGUP 160853Z AUTO 00000KT 10SM CLR 18/08 A3019 RMK AO2 SLP034 T01780083 56013
KGUP 160753Z AUTO 19005KT 10SM CLR 21/08 A3021 RMK AO2 SLP022 T02060083
KGUP 160653Z AUTO 19003KT 10SM CLR 22/08 A3021 RMK AO2 SLP020 T02170083 403440133
KGUP 160553Z AUTO 19005KT 10SM SCT110 21/09 A3024 RMK AO2 SLP032 60000 T02060089 10339 20206 50017
KGUP 160453Z AUTO 19003KT 10SM FEW070 SCT090 23/08 A3024 RMK AO2 RAB12E23 SLP033 P0000 T02330083
KGUP 160353Z AUTO 17005KT 10SM OVC110 25/08 A3022 RMK AO2 SLP032 T02500078
KGUP 160253Z AUTO 13012G22KT 10SM BKN120 26/07 A3017 RMK AO2 SLP019 T02610072 53013
KGUP 160153Z AUTO 15014G24KT 10SM SCT120 26/09 A3017 RMK AO2 PK WND 16035/0126 WSHFT 0118 SLP031 T02560089
KGUP 160138Z AUTO 15021G32KT 10SM FEW120 26/09 A3016 RMK AO2 PK WND 16035/0126 WSHFT 0118 T02610089
KGUP 160053Z AUTO 27008KT 10SM CLR 33/02 A3013 RMK AO2 SLP013 T03280022
KGUP 152353Z AUTO 30006KT 10SM CLR 32/02 A3013 RMK AO2 SLP018 60000 T03220022 10344 20294 56021
KGUP 152253Z AUTO 00000KT 10SM CLR 34/03 A3014 RMK AO2 SLP008 T03390033
KGUP 152153Z AUTO 10SM CLR 32/04 A3017 RMK AO2 PK WND 23027/2100 WSHFT 2057 LTG DSNT E RAE18 SLP023 P0000 T03220039
KGUP 152117Z AUTO 00000KT 10SM -RA FEW055 SCT070 BKN110 31/03 A3019 RMK AO2 PK WND 23027/2100 WSHFT 2057 LTG DSNT E P0000 T03060033
KGUP 152053Z AUTO 28010KT 10SM -RA FEW030 FEW038 30/05 A3021 RMK AO2 LTG DSNT N RAB43 SLP045 P0000 60000 T03000050 56015
KGUP 152045Z AUTO 30010G20KT 10SM -RA CLR 30/06 A3021 RMK AO2 RAB43 P0000 T03000056
KGUP 152020Z AUTO 32013G20KT 10SM VCTS CLR 30/06 A3021 RMK AO2 T03000056
KGUP 151953Z AUTO 29012G20KT 10SM CLR 32/06 A3022 RMK AO2 SLP034 T03170056
KGUP 151929Z AUTO 22010KT 10SM VCTS CLR 33/06 A3022 RMK AO2 LTG DSNT N T03330056
KGUP 151853Z AUTO 10SM CLR 32/04 A3024 RMK AO2 SLP034 T03170039
KGUP 151753Z AUTO 31005KT 10SM CLR 31/06 A3026 RMK AO2 SLP045 T03110056 10317 20133 58008
KGUP 151653Z AUTO 25005KT 10SM CLR 29/07 A3027 RMK AO2 SLP040 T02890072
KGUP 151553Z AUTO VRB03KT 10SM CLR 26/09 A3029 RMK AO2 SLP058 T02610094
KGUP 151453Z AUTO 20004KT 10SM CLR 24/09 A3029 RMK AO2 SLP060 T02390094 50001
KGUP 151353Z AUTO 21004KT 10SM CLR 21/09 A3030 RMK AO2 SLP074 T02060094
KGUP 151253Z AUTO 00000KT 10SM CLR 15/09 A3029 RMK AO2 SLP080 T01500089
KGUP 151153Z AUTO 00000KT 10SM CLR 14/08 A3029 RMK AO2 SLP073 T01440078 10206 20144 53001
KGUP 151053Z AUTO 08004KT 10SM CLR 16/08 A3028 RMK AO2 SLP062 T01560083
KGUP 150953Z AUTO 00000KT 10SM CLR 17/10 A3028 RMK AO2 SLP056 T01670100
KGUP 150853Z AUTO 00000KT 10SM CLR 16/11 A3028 RMK AO2 SLP066 T01610106 56003
KGUP 150753Z AUTO 00000KT 10SM CLR 18/08 A3028 RMK AO2 SLP057 T01830083
KGUP 150653Z AUTO 18003KT 10SM CLR 20/10 A3029 RMK AO2 SLP059 T02000100 403330139
KGUP 150553Z AUTO 27006KT 10SM CLR 20/09 A3029 RMK AO2 RAB0458E07 SLP060 P0000 60000 T02000094 10322 20200 55002
KGUP 150453Z AUTO 18015G22KT 10SM SCT070 BKN085 OVC110 24/08 A3027 RMK AO2 RAB04E42 SLP050 P0000 T02390083
KGUP 150353Z AUTO 16008KT 10SM FEW060 BKN100 OVC120 24/09 A3030 RMK AO2 RAB16E26B40E50 TSB28E43 SLP063 P0000 T02390089
KGUP 150349Z AUTO 14006G21KT 10SM -RA FEW060 BKN100 OVC120 24/09 A3030 RMK AO2 LTG DSNT S RAB16E26B40 TSB28E43 P0000
KGUP 150334Z AUTO 14012G21KT 100V180 10SM TS BKN060 BKN075 OVC100 25/08 A3030 RMK AO2 LTG DSNT NE AND S RAB16E26 TSB28 P0000 T02500083
KGUP 150321Z AUTO 15014G23KT 10SM VCTS -RA FEW055 FEW070 BKN110 25/08 A3028 RMK AO2 RAB16 P0000 T02500083
KGUP 150253Z AUTO 16015G20KT 10SM FEW070 BKN100 OVC120 26/08 A3026 RMK AO2 LTG DSNT SE AND S RAB05E18 SLP050 P0000 60000 T02560083 53012
KGUP 150244Z AUTO 17012KT 10SM BKN100 BKN120 25/09 A3026 RMK AO2 LTG DSNT E-S RAB05E18 P0000 T02500094
KGUP 150229Z AUTO 17012G19KT 10SM VCTS SCT100 25/09 A3026 RMK AO2 LTG DSNT SE RAB05E18 P0000 T02500094
KGUP 150153Z AUTO 14015G24KT 10SM BKN100 BKN120 27/07 A3025 RMK AO2 LTG DSNT SE-SW SLP059 T02670072
KGUP 150140Z AUTO 15017G21KT 10SM VCTS OVC100 27/07 A3025 RMK AO2 LTG DSNT E-S T02720072
KGUP 150053Z AUTO 30008KT 10SM FEW110 30/06 A3022 RMK AO2 LTG DSNT E AND SE SLP055 T03000056